sensor_id;sensor_type;location;lat;lon;timestamp;pressure;altitude;pressure_sealevel;temperature;humidity
10646;BME280;5371;49.782;9.932;2022-10-17T00:01:46;100160.28;;;12.70;100.00
10646;BME280;5371;49.782;9.932;2022-10-17T00:04:13;100156.34;;;12.63;100.00
10646;BME280;5371;49.782;9.932;2022-10-17T00:06:43;100150.09;;;12.65;100.00
10646;BME280;5371;49.782;9.932;2022-10-17T00:09:10;100156.53;;;12.60;100.00
10646;BME280;5371;49.782;9.932;2022-10-17T00:11:37;100156.69;;;12.57;100.00
10646;BME280;5371;49.782;9.932;2022-10-17T00:14:05;100159.31;;;12.57;100.00
10646;BME280;5371;49.782;9.932;2022-10-17T00:16:34;100159.16;;;12.60;100.00
10646;BME280;5371;49.782;9.932;2022-10-17T00:19:02;100168.03;;;12.57;100.00
10646;BME280;5371;49.782;9.932;2022-10-17T00:21:30;100174.88;;;12.46;100.00
10646;BME280;5371;49.782;9.932;2022-10-17T00:23:58;100168.19;;;12.40;100.00
10646;BME280;5371;49.782;9.932;2022-10-17T00:26:26;100173.72;;;12.35;100.00
10646;BME280;5371;49.782;9.932;2022-10-17T00:28:54;100176.50;;;12.32;100.00
10646;BME280;5371;49.782;9.932;2022-10-17T00:31:22;100177.78;;;12.25;100.00
10646;BME280;5371;49.782;9.932;2022-10-17T00:33:50;100178.72;;;12.24;100.00
10646;BME280;5371;49.782;9.932;2022-10-17T00:36:21;100184.91;;;12.23;100.00
10646;BME280;5371;49.782;9.932;2022-10-17T00:38:50;100187.03;;;12.17;100.00
10646;BME280;5371;49.782;9.932;2022-10-17T00:41:22;100190.50;;;12.17;100.00
10646;BME280;5371;49.782;9.932;2022-10-17T00:43:56;100194.22;;;12.13;100.00
10646;BME280;5371;49.782;9.932;2022-10-17T00:46:26;100187.13;;;12.15;100.00
10646;BME280;5371;49.782;9.932;2022-10-17T00:48:56;100189.41;;;12.06;100.00
10646;BME280;5371;49.782;9.932;2022-10-17T00:51:28;100188.72;;;12.02;100.00
10646;BME280;5371;49.782;9.932;2022-10-17T00:53:57;100188.00;;;12.00;100.00
10646;BME280;5371;49.782;9.932;2022-10-17T00:56:26;100191.34;;;12.02;100.00
10646;BME280;5371;49.782;9.932;2022-10-17T00:58:53;100185.53;;;11.97;100.00
10646;BME280;5371;49.782;9.932;2022-10-17T01:01:20;100195.25;;;11.95;100.00
10646;BME280;5371;49.782;9.932;2022-10-17T01:03:47;100200.69;;;11.92;100.00
10646;BME280;5371;49.782;9.932;2022-10-17T01:06:15;100203.53;;;11.87;100.00
10646;BME280;5371;49.782;9.932;2022-10-17T01:08:42;100204.38;;;11.88;100.00
10646;BME280;5371;49.782;9.932;2022-10-17T01:11:20;100208.09;;;11.84;100.00
10646;BME280;5371;49.782;9.932;2022-10-17T01:13:52;100206.94;;;11.89;100.00
10646;BME280;5371;49.782;9.932;2022-10-17T01:16:31;100206.25;;;11.86;100.00
10646;BME280;5371;49.782;9.932;2022-10-17T01:19:11;100199.44;;;11.83;100.00
10646;BME280;5371;49.782;9.932;2022-10-17T01:21:49;100199.31;;;11.85;100.00
10646;BME280;5371;49.782;9.932;2022-10-17T01:24:39;100203.63;;;11.86;100.00
10646;BME280;5371;49.782;9.932;2022-10-17T01:30:47;100198.06;;;11.92;100.00
10646;BME280;5371;49.782;9.932;2022-10-17T01:33:20;100199.41;;;11.99;100.00
10646;BME280;5371;49.782;9.932;2022-10-17T01:35:54;100204.03;;;11.94;100.00
10646;BME280;5371;49.782;9.932;2022-10-17T01:38:26;100199.22;;;12.02;100.00
10646;BME280;5371;49.782;9.932;2022-10-17T01:41:01;100199.97;;;12.04;100.00
10646;BME280;5371;49.782;9.932;2022-10-17T01:43:33;100198.38;;;11.86;100.00
10646;BME280;5371;49.782;9.932;2022-10-17T01:46:10;100196.81;;;11.83;100.00
10646;BME280;5371;49.782;9.932;2022-10-17T01:48:42;100203.22;;;11.78;100.00
10646;BME280;5371;49.782;9.932;2022-10-17T01:51:14;100199.81;;;11.76;100.00
10646;BME280;5371;49.782;9.932;2022-10-17T01:53:48;100204.28;;;11.74;100.00
10646;BME280;5371;49.782;9.932;2022-10-17T01:56:17;100214.94;;;11.71;100.00
10646;BME280;5371;49.782;9.932;2022-10-17T01:58:49;100211.53;;;11.69;100.00
10646;BME280;5371;49.782;9.932;2022-10-17T02:01:20;100202.19;;;11.65;100.00
10646;BME280;5371;49.782;9.932;2022-10-17T02:03:53;100202.25;;;11.63;100.00
10646;BME280;5371;49.782;9.932;2022-10-17T02:06:21;100200.63;;;11.60;100.00
10646;BME280;5371;49.782;9.932;2022-10-17T02:08:49;100197.19;;;11.60;100.00
10646;BME280;5371;49.782;9.932;2022-10-17T02:11:19;100202.19;;;11.65;100.00
10646;BME280;5371;49.782;9.932;2022-10-17T02:14:03;100195.06;;;11.51;100.00
10646;BME280;5371;49.782;9.932;2022-10-17T02:16:37;100194.97;;;11.52;100.00
10646;BME280;5371;49.782;9.932;2022-10-17T02:19:18;100192.38;;;11.52;100.00
10646;BME280;5371;49.782;9.932;2022-10-17T02:21:56;100186.53;;;11.47;100.00
10646;BME280;5371;49.782;9.932;2022-10-17T02:24:31;100180.84;;;11.39;100.00
10646;BME280;5371;49.782;9.932;2022-10-17T02:27:02;100187.34;;;11.32;100.00
10646;BME280;5371;49.782;9.932;2022-10-17T02:29:35;100182.56;;;11.40;100.00
10646;BME280;5371;49.782;9.932;2022-10-17T02:32:06;100184.59;;;11.35;100.00
10646;BME280;5371;49.782;9.932;2022-10-17T02:34:37;100190.47;;;11.39;100.00
10646;BME280;5371;49.782;9.932;2022-10-17T02:37:07;100188.13;;;11.34;100.00
10646;BME280;5371;49.782;9.932;2022-10-17T02:39:37;100185.59;;;11.33;100.00
10646;BME280;5371;49.782;9.932;2022-10-17T02:42:07;100187.28;;;11.34;100.00
10646;BME280;5371;49.782;9.932;2022-10-17T02:44:37;100190.66;;;11.36;100.00
10646;BME280;5371;49.782;9.932;2022-10-17T02:47:11;100186.34;;;11.35;100.00
10646;BME280;5371;49.782;9.932;2022-10-17T02:49:44;100193.78;;;11.42;100.00
10646;BME280;5371;49.782;9.932;2022-10-17T02:52:15;100194.56;;;11.29;100.00
10646;BME280;5371;49.782;9.932;2022-10-17T02:54:47;100188.97;;;11.19;100.00
10646;BME280;5371;49.782;9.932;2022-10-17T02:57:21;100196.03;;;11.17;100.00
10646;BME280;5371;49.782;9.932;2022-10-17T02:59:51;100194.50;;;11.13;100.00
10646;BME280;5371;49.782;9.932;2022-10-17T03:02:20;100195.19;;;11.16;100.00
10646;BME280;5371;49.782;9.932;2022-10-17T03:04:47;100197.66;;;11.19;100.00
10646;BME280;5371;49.782;9.932;2022-10-17T03:07:15;100200.28;;;11.19;100.00
10646;BME280;5371;49.782;9.932;2022-10-17T03:09:42;100203.13;;;11.15;100.00
10646;BME280;5371;49.782;9.932;2022-10-17T03:12:09;100212.31;;;11.22;100.00
10646;BME280;5371;49.782;9.932;2022-10-17T03:14:36;100214.44;;;11.15;100.00
10646;BME280;5371;49.782;9.932;2022-10-17T03:17:03;100214.44;;;11.15;100.00
10646;BME280;5371;49.782;9.932;2022-10-17T03:19:31;100216.78;;;11.20;100.00
10646;BME280;5371;49.782;9.932;2022-10-17T03:21:58;100212.72;;;11.14;100.00
10646;BME280;5371;49.782;9.932;2022-10-17T03:24:25;100225.88;;;11.13;100.00
10646;BME280;5371;49.782;9.932;2022-10-17T03:26:52;100222.69;;;11.08;100.00
10646;BME280;5371;49.782;9.932;2022-10-17T03:29:19;100232.28;;;11.07;100.00
10646;BME280;5371;49.782;9.932;2022-10-17T03:31:46;100227.72;;;11.11;100.00
10646;BME280;5371;49.782;9.932;2022-10-17T03:34:15;100243.75;;;11.05;100.00
10646;BME280;5371;49.782;9.932;2022-10-17T03:36:44;100244.84;;;11.01;100.00
10646;BME280;5371;49.782;9.932;2022-10-17T03:39:12;100241.84;;;11.08;100.00
10646;BME280;5371;49.782;9.932;2022-10-17T03:41:39;100242.91;;;11.04;100.00
10646;BME280;5371;49.782;9.932;2022-10-17T03:44:05;100246.53;;;11.02;100.00
10646;BME280;5371;49.782;9.932;2022-10-17T03:46:32;100243.22;;;10.98;100.00
10646;BME280;5371;49.782;9.932;2022-10-17T03:48:59;100246.69;;;10.99;100.00
10646;BME280;5371;49.782;9.932;2022-10-17T03:51:27;100241.91;;;11.07;100.00
10646;BME280;5371;49.782;9.932;2022-10-17T03:54:02;100249.00;;;11.05;100.00
10646;BME280;5371;49.782;9.932;2022-10-17T03:56:29;100242.28;;;11.16;100.00
10646;BME280;5371;49.782;9.932;2022-10-17T03:59:01;100253.59;;;11.17;100.00
10646;BME280;5371;49.782;9.932;2022-10-17T04:01:30;100257.09;;;11.00;100.00
10646;BME280;5371;49.782;9.932;2022-10-17T04:03:58;100253.78;;;10.97;100.00
10646;BME280;5371;49.782;9.932;2022-10-17T04:06:28;100254.03;;;10.92;100.00
10646;BME280;5371;49.782;9.932;2022-10-17T04:08:56;100258.94;;;10.98;100.00
10646;BME280;5371;49.782;9.932;2022-10-17T04:11:47;100262.22;;;10.84;100.00
10646;BME280;5371;49.782;9.932;2022-10-17T04:14:14;100259.53;;;10.86;100.00
10646;BME280;5371;49.782;9.932;2022-10-17T04:16:41;100265.09;;;10.80;100.00
10646;BME280;5371;49.782;9.932;2022-10-17T04:19:14;100262.56;;;10.78;100.00
10646;BME280;5371;49.782;9.932;2022-10-17T04:21:44;100261.69;;;10.78;100.00
10646;BME280;5371;49.782;9.932;2022-10-17T04:24:12;100274.84;;;10.76;100.00
10646;BME280;5371;49.782;9.932;2022-10-17T04:26:42;100277.53;;;10.75;100.00
10646;BME280;5371;49.782;9.932;2022-10-17T04:29:10;100273.53;;;10.68;100.00
10646;BME280;5371;49.782;9.932;2022-10-17T04:31:39;100274.84;;;10.76;100.00
10646;BME280;5371;49.782;9.932;2022-10-17T04:34:29;100276.16;;;10.68;100.00
10646;BME280;5371;49.782;9.932;2022-10-17T04:36:56;100276.31;;;10.65;100.00
10646;BME280;5371;49.782;9.932;2022-10-17T04:39:23;100277.16;;;10.65;100.00
10646;BME280;5371;49.782;9.932;2022-10-17T04:41:50;100272.09;;;10.62;100.00
10646;BME280;5371;49.782;9.932;2022-10-17T04:44:20;100283.41;;;10.63;100.00
10646;BME280;5371;49.782;9.932;2022-10-17T04:46:50;100285.94;;;10.64;100.00
10646;BME280;5371;49.782;9.932;2022-10-17T04:49:18;100287.78;;;10.62;100.00
10646;BME280;5371;49.782;9.932;2022-10-17T04:51:48;100293.84;;;10.63;100.00
10646;BME280;5371;49.782;9.932;2022-10-17T04:54:22;100298.22;;;10.62;100.00
10646;BME280;5371;49.782;9.932;2022-10-17T04:56:56;100298.81;;;10.50;100.00
10646;BME280;5371;49.782;9.932;2022-10-17T04:59:27;100299.81;;;10.47;100.00
10646;BME280;5371;49.782;9.932;2022-10-17T05:02:12;100302.69;;;10.60;100.00
10646;BME280;5371;49.782;9.932;2022-10-17T05:04:39;100297.97;;;10.49;100.00
10646;BME280;5371;49.782;9.932;2022-10-17T05:07:08;100301.84;;;10.77;100.00
10646;BME280;5371;49.782;9.932;2022-10-17T05:09:44;100299.94;;;10.80;100.00
10646;BME280;5371;49.782;9.932;2022-10-17T05:12:11;100300.72;;;10.82;100.00
10646;BME280;5371;49.782;9.932;2022-10-17T05:14:43;100298.38;;;10.76;100.00
10646;BME280;5371;49.782;9.932;2022-10-17T05:17:11;100308.38;;;10.68;100.00
10646;BME280;5371;49.782;9.932;2022-10-17T05:19:38;100297.59;;;10.57;100.00
10646;BME280;5371;49.782;9.932;2022-10-17T05:22:06;100290.91;;;10.52;100.00
10646;BME280;5371;49.782;9.932;2022-10-17T05:24:33;100297.13;;;10.49;100.00
10646;BME280;5371;49.782;9.932;2022-10-17T05:27:00;100296.59;;;10.42;100.00
10646;BME280;5371;49.782;9.932;2022-10-17T05:29:28;100299.19;;;10.42;100.00
10646;BME280;5371;49.782;9.932;2022-10-17T05:32:04;100295.59;;;10.45;100.00
10646;BME280;5371;49.782;9.932;2022-10-17T05:34:33;100290.38;;;10.45;100.00
10646;BME280;5371;49.782;9.932;2022-10-17T05:37:00;100292.06;;;10.46;100.00
10646;BME280;5371;49.782;9.932;2022-10-17T05:39:27;100295.59;;;10.45;100.00
10646;BME280;5371;49.782;9.932;2022-10-17T05:41:56;100301.75;;;10.44;100.00
10646;BME280;5371;49.782;9.932;2022-10-17T05:44:23;100304.13;;;10.48;100.00
10646;BME280;5371;49.782;9.932;2022-10-17T05:46:54;100311.09;;;10.48;100.00
10646;BME280;5371;49.782;9.932;2022-10-17T05:49:23;100307.75;;;10.46;100.00
10646;BME280;5371;49.782;9.932;2022-10-17T05:51:50;100314.75;;;10.45;100.00
10646;BME280;5371;49.782;9.932;2022-10-17T05:54:17;100318.63;;;10.37;100.00
10646;BME280;5371;49.782;9.932;2022-10-17T05:56:44;100317.00;;;10.34;100.00
10646;BME280;5371;49.782;9.932;2022-10-17T05:59:11;100320.91;;;10.26;100.00
10646;BME280;5371;49.782;9.932;2022-10-17T06:01:49;100320.25;;;10.21;100.00
10646;BME280;5371;49.782;9.932;2022-10-17T06:04:16;100326.19;;;10.24;100.00
10646;BME280;5371;49.782;9.932;2022-10-17T06:06:45;100328.44;;;10.32;100.00
10646;BME280;5371;49.782;9.932;2022-10-17T06:09:12;100327.19;;;10.22;100.00
10646;BME280;5371;49.782;9.932;2022-10-17T06:11:45;100326.44;;;10.20;100.00
10646;BME280;5371;49.782;9.932;2022-10-17T06:14:12;100334.88;;;10.25;100.00
10646;BME280;5371;49.782;9.932;2022-10-17T06:16:40;100334.16;;;10.21;100.00
10646;BME280;5371;49.782;9.932;2022-10-17T06:19:08;100321.75;;;10.26;100.00
10646;BME280;5371;49.782;9.932;2022-10-17T06:21:36;100327.41;;;10.36;100.00
10646;BME280;5371;49.782;9.932;2022-10-17T06:24:10;100322.72;;;10.42;100.00
10646;BME280;5371;49.782;9.932;2022-10-17T06:26:39;100319.88;;;10.47;100.00
10646;BME280;5371;49.782;9.932;2022-10-17T06:29:08;100325.31;;;10.42;100.00
10646;BME280;5371;49.782;9.932;2022-10-17T06:31:41;100331.47;;;10.41;100.00
10646;BME280;5371;49.782;9.932;2022-10-17T06:34:09;100333.94;;;10.44;100.00
10646;BME280;5371;49.782;9.932;2022-10-17T06:36:39;100345.09;;;10.48;100.00
10646;BME280;5371;49.782;9.932;2022-10-17T06:39:07;100346.72;;;10.50;100.00
10646;BME280;5371;49.782;9.932;2022-10-17T06:41:43;100345.50;;;10.58;100.00
10646;BME280;5371;49.782;9.932;2022-10-17T06:44:10;100355.44;;;10.68;100.00
10646;BME280;5371;49.782;9.932;2022-10-17T06:46:56;100359.91;;;10.83;100.00
10646;BME280;5371;49.782;9.932;2022-10-17T06:49:25;100352.78;;;10.87;100.00
10646;BME280;5371;49.782;9.932;2022-10-17T06:52:18;100357.16;;;11.04;100.00
10646;BME280;5371;49.782;9.932;2022-10-17T06:55:04;100353.78;;;11.36;100.00
10646;BME280;5371;49.782;9.932;2022-10-17T06:57:41;100364.66;;;11.61;100.00
10646;BME280;5371;49.782;9.932;2022-10-17T07:00:35;100367.13;;;11.97;100.00
10646;BME280;5371;49.782;9.932;2022-10-17T07:03:04;100363.97;;;12.55;100.00
10646;BME280;5371;49.782;9.932;2022-10-17T07:05:31;100379.31;;;12.93;100.00
10646;BME280;5371;49.782;9.932;2022-10-17T07:07:59;100376.53;;;13.26;100.00
10646;BME280;5371;49.782;9.932;2022-10-17T07:10:26;100371.88;;;13.59;100.00
10646;BME280;5371;49.782;9.932;2022-10-17T07:12:54;100370.09;;;13.88;100.00
10646;BME280;5371;49.782;9.932;2022-10-17T07:15:21;100368.78;;;14.09;100.00
10646;BME280;5371;49.782;9.932;2022-10-17T07:17:48;100376.16;;;14.45;100.00
10646;BME280;5371;49.782;9.932;2022-10-17T07:20:17;100380.41;;;14.75;100.00
10646;BME280;5371;49.782;9.932;2022-10-17T07:22:44;100381.44;;;14.99;100.00
10646;BME280;5371;49.782;9.932;2022-10-17T07:25:11;100385.19;;;15.34;100.00
10646;BME280;5371;49.782;9.932;2022-10-17T07:27:47;100371.84;;;15.63;100.00
10646;BME280;5371;49.782;9.932;2022-10-17T07:30:16;100372.16;;;15.71;100.00
10646;BME280;5371;49.782;9.932;2022-10-17T07:32:58;100377.31;;;16.11;100.00
10646;BME280;5371;49.782;9.932;2022-10-17T07:35:25;100376.22;;;16.50;100.00
10646;BME280;5371;49.782;9.932;2022-10-17T07:37:52;100375.28;;;16.63;100.00
10646;BME280;5371;49.782;9.932;2022-10-17T07:40:20;100377.06;;;16.87;100.00
10646;BME280;5371;49.782;9.932;2022-10-17T07:42:47;100381.59;;;17.08;100.00
10646;BME280;5371;49.782;9.932;2022-10-17T07:45:15;100387.41;;;17.25;100.00
10646;BME280;5371;49.782;9.932;2022-10-17T07:47:44;100395.53;;;17.45;100.00
10646;BME280;5371;49.782;9.932;2022-10-17T07:50:14;100389.28;;;17.57;100.00
10646;BME280;5371;49.782;9.932;2022-10-17T07:52:41;100389.97;;;17.94;100.00
10646;BME280;5371;49.782;9.932;2022-10-17T07:55:08;100381.56;;;18.01;100.00
10646;BME280;5371;49.782;9.932;2022-10-17T07:57:35;100390.09;;;18.15;100.00
10646;BME280;5371;49.782;9.932;2022-10-17T08:00:03;100391.53;;;18.08;100.00
10646;BME280;5371;49.782;9.932;2022-10-17T08:02:49;100396.72;;;18.10;100.00
10646;BME280;5371;49.782;9.932;2022-10-17T08:05:22;100400.19;;;18.10;100.00
10646;BME280;5371;49.782;9.932;2022-10-17T08:07:49;100394.78;;;18.12;100.00
10646;BME280;5371;49.782;9.932;2022-10-17T08:10:16;100398.38;;;18.33;100.00
10646;BME280;5371;49.782;9.932;2022-10-17T08:12:43;100399.44;;;18.53;100.00
10646;BME280;5371;49.782;9.932;2022-10-17T08:15:11;100396.78;;;18.64;100.00
10646;BME280;5371;49.782;9.932;2022-10-17T08:17:38;100392.00;;;18.90;100.00
10646;BME280;5371;49.782;9.932;2022-10-17T08:20:08;100398.44;;;19.08;100.00
10646;BME280;5371;49.782;9.932;2022-10-17T08:22:35;100395.19;;;19.04;100.00
10646;BME280;5371;49.782;9.932;2022-10-17T08:25:03;100395.28;;;19.14;100.00
10646;BME280;5371;49.782;9.932;2022-10-17T08:27:31;100391.69;;;19.36;100.00
10646;BME280;5371;49.782;9.932;2022-10-17T08:29:59;100389.75;;;19.59;100.00
10646;BME280;5371;49.782;9.932;2022-10-17T08:32:27;100390.34;;;19.62;100.00
10646;BME280;5371;49.782;9.932;2022-10-17T08:34:55;100393.53;;;19.87;100.00
10646;BME280;5371;49.782;9.932;2022-10-17T08:37:23;100392.13;;;20.43;100.00
10646;BME280;5371;49.782;9.932;2022-10-17T08:39:50;100380.25;;;20.47;100.00
10646;BME280;5371;49.782;9.932;2022-10-17T08:42:29;100385.91;;;20.33;100.00
10646;BME280;5371;49.782;9.932;2022-10-17T08:45:05;100388.50;;;20.44;100.00
10646;BME280;5371;49.782;9.932;2022-10-17T08:47:36;100396.78;;;20.70;100.00
10646;BME280;5371;49.782;9.932;2022-10-17T08:50:05;100387.44;;;20.95;100.00
10646;BME280;5371;49.782;9.932;2022-10-17T08:52:38;100393.31;;;20.99;100.00
10646;BME280;5371;49.782;9.932;2022-10-17T08:55:13;100395.41;;;21.14;100.00
10646;BME280;5371;49.782;9.932;2022-10-17T08:57:42;100390.94;;;21.05;100.00
10646;BME280;5371;49.782;9.932;2022-10-17T09:00:14;100388.88;;;21.28;100.00
10646;BME280;5371;49.782;9.932;2022-10-17T09:02:53;100391.75;;;21.63;100.00
10646;BME280;5371;49.782;9.932;2022-10-17T09:05:32;100393.53;;;21.82;100.00
10646;BME280;5371;49.782;9.932;2022-10-17T09:08:15;100387.75;;;21.87;100.00
10646;BME280;5371;49.782;9.932;2022-10-17T09:10:54;100385.16;;;22.14;100.00
10646;BME280;5371;49.782;9.932;2022-10-17T09:13:30;100380.22;;;22.47;100.00
10646;BME280;5371;49.782;9.932;2022-10-17T09:18:57;100376.41;;;22.76;100.00
10646;BME280;5371;49.782;9.932;2022-10-17T09:21:32;100377.84;;;22.44;100.00
10646;BME280;5371;49.782;9.932;2022-10-17T09:24:10;100374.19;;;22.90;100.00
10646;BME280;5371;49.782;9.932;2022-10-17T09:26:39;100382.94;;;23.35;100.00
10646;BME280;5371;49.782;9.932;2022-10-17T09:29:14;100374.47;;;23.22;100.00
10646;BME280;5371;49.782;9.932;2022-10-17T09:31:47;100371.81;;;23.04;100.00
10646;BME280;5371;49.782;9.932;2022-10-17T09:34:17;100368.88;;;23.51;100.00
10646;BME280;5371;49.782;9.932;2022-10-17T09:36:44;100366.44;;;23.40;100.00
10646;BME280;5371;49.782;9.932;2022-10-17T09:39:15;100356.81;;;23.65;100.00
10646;BME280;5371;49.782;9.932;2022-10-17T09:41:48;100346.13;;;24.24;96.13
10646;BME280;5371;49.782;9.932;2022-10-17T09:44:18;100349.66;;;24.33;98.70
10646;BME280;5371;49.782;9.932;2022-10-17T09:47:00;100339.00;;;24.07;99.43
10646;BME280;5371;49.782;9.932;2022-10-17T09:49:33;100345.47;;;24.31;98.89
10646;BME280;5371;49.782;9.932;2022-10-17T09:52:04;100333.56;;;24.83;95.60
10646;BME280;5371;49.782;9.932;2022-10-17T09:54:40;100334.53;;;24.66;97.69
10646;BME280;5371;49.782;9.932;2022-10-17T09:57:09;100329.34;;;24.65;97.31
10646;BME280;5371;49.782;9.932;2022-10-17T09:59:38;100327.25;;;24.92;95.78
10646;BME280;5371;49.782;9.932;2022-10-17T10:02:17;100322.72;;;25.09;93.93
10646;BME280;5371;49.782;9.932;2022-10-17T10:04:57;100318.50;;;24.82;95.67
10646;BME280;5371;49.782;9.932;2022-10-17T10:07:28;100323.03;;;25.06;94.04
10646;BME280;5371;49.782;9.932;2022-10-17T10:10:00;100312.41;;;24.32;97.61
10646;BME280;5371;49.782;9.932;2022-10-17T10:12:30;100321.06;;;25.00;94.11
10646;BME280;5371;49.782;9.932;2022-10-17T10:14:58;100323.22;;;25.21;93.84
10646;BME280;5371;49.782;9.932;2022-10-17T10:17:35;100316.50;;;24.84;97.23
10646;BME280;5371;49.782;9.932;2022-10-17T10:20:24;100321.69;;;25.34;93.88
10646;BME280;5371;49.782;9.932;2022-10-17T10:23:05;100320.56;;;25.13;96.41
10646;BME280;5371;49.782;9.932;2022-10-17T10:25:34;100327.66;;;25.53;91.40
10646;BME280;5371;49.782;9.932;2022-10-17T10:28:02;100331.53;;;25.58;90.65
10646;BME280;5371;49.782;9.932;2022-10-17T10:30:35;100332.44;;;25.02;93.01
10646;BME280;5371;49.782;9.932;2022-10-17T10:33:02;100348.59;;;25.33;92.30
10646;BME280;5371;49.782;9.932;2022-10-17T10:35:31;100349.31;;;25.98;90.34
10646;BME280;5371;49.782;9.932;2022-10-17T10:38:01;100347.25;;;25.61;91.61
10646;BME280;5371;49.782;9.932;2022-10-17T10:40:32;100346.03;;;25.80;92.96
10646;BME280;5371;49.782;9.932;2022-10-17T10:43:04;100344.72;;;26.15;89.78
10646;BME280;5371;49.782;9.932;2022-10-17T10:45:40;100344.94;;;26.44;89.87
10646;BME280;5371;49.782;9.932;2022-10-17T10:48:18;100348.19;;;26.63;89.59
10646;BME280;5371;49.782;9.932;2022-10-17T10:50:49;100350.31;;;27.36;86.03
10646;BME280;5371;49.782;9.932;2022-10-17T10:53:30;100334.84;;;27.75;83.80
10646;BME280;5371;49.782;9.932;2022-10-17T10:56:01;100333.09;;;27.68;84.76
10646;BME280;5371;49.782;9.932;2022-10-17T10:58:40;100327.81;;;27.74;83.34
10646;BME280;5371;49.782;9.932;2022-10-17T11:01:15;100332.69;;;28.29;79.73
10646;BME280;5371;49.782;9.932;2022-10-17T11:03:55;100332.44;;;28.46;80.28
10646;BME280;5371;49.782;9.932;2022-10-17T11:06:26;100329.16;;;28.50;79.88
10646;BME280;5371;49.782;9.932;2022-10-17T11:09:15;100322.06;;;28.43;79.69
10646;BME280;5371;49.782;9.932;2022-10-17T11:11:48;100322.66;;;28.38;80.05
10646;BME280;5371;49.782;9.932;2022-10-17T11:14:30;100326.47;;;28.29;80.34
10646;BME280;5371;49.782;9.932;2022-10-17T11:17:04;100322.56;;;28.32;80.14
10646;BME280;5371;49.782;9.932;2022-10-17T11:19:40;100321.56;;;28.18;79.05
10646;BME280;5371;49.782;9.932;2022-10-17T11:22:14;100317.56;;;28.14;79.46
10646;BME280;5371;49.782;9.932;2022-10-17T11:24:47;100316.09;;;27.00;85.69
10646;BME280;5371;49.782;9.932;2022-10-17T11:27:22;100322.03;;;27.48;84.46
10646;BME280;5371;49.782;9.932;2022-10-17T11:29:51;100308.03;;;27.52;85.33
10646;BME280;5371;49.782;9.932;2022-10-17T11:32:21;100308.72;;;27.54;85.65
10646;BME280;5371;49.782;9.932;2022-10-17T11:34:53;100307.28;;;27.44;86.17
10646;BME280;5371;49.782;9.932;2022-10-17T11:37:26;100310.06;;;26.98;87.83
10646;BME280;5371;49.782;9.932;2022-10-17T11:39:59;100302.91;;;27.66;86.16
10646;BME280;5371;49.782;9.932;2022-10-17T11:42:31;100295.94;;;27.86;84.43
10646;BME280;5371;49.782;9.932;2022-10-17T11:45:06;100300.84;;;27.82;84.88
10646;BME280;5371;49.782;9.932;2022-10-17T11:47:37;100302.50;;;27.69;85.35
10646;BME280;5371;49.782;9.932;2022-10-17T11:50:18;100295.34;;;28.05;83.83
10646;BME280;5371;49.782;9.932;2022-10-17T11:52:50;100296.25;;;28.27;82.46
10646;BME280;5371;49.782;9.932;2022-10-17T11:55:21;100293.75;;;28.25;82.91
10646;BME280;5371;49.782;9.932;2022-10-17T11:57:58;100298.06;;;28.41;82.27
10646;BME280;5371;49.782;9.932;2022-10-17T12:00:42;100298.88;;;28.20;82.73
10646;BME280;5371;49.782;9.932;2022-10-17T12:03:24;100299.41;;;28.31;81.29
10646;BME280;5371;49.782;9.932;2022-10-17T12:05:58;100291.00;;;28.04;80.85
10646;BME280;5371;49.782;9.932;2022-10-17T12:08:31;100294.34;;;27.91;83.16
10646;BME280;5371;49.782;9.932;2022-10-17T12:11:06;100294.19;;;27.64;83.70
10646;BME280;5371;49.782;9.932;2022-10-17T12:13:55;100296.91;;;27.26;81.65
10646;BME280;5371;49.782;9.932;2022-10-17T12:16:50;100296.75;;;26.36;79.60
10646;BME280;5371;49.782;9.932;2022-10-17T12:19:24;100294.59;;;26.01;80.43
10646;BME280;5371;49.782;9.932;2022-10-17T12:21:55;100298.50;;;25.82;80.58
10646;BME280;5371;49.782;9.932;2022-10-17T12:24:32;100289.41;;;25.36;80.44
10646;BME280;5371;49.782;9.932;2022-10-17T12:27:34;100298.16;;;25.22;82.97
10646;BME280;5371;49.782;9.932;2022-10-17T12:30:05;100304.69;;;25.03;83.89
10646;BME280;5371;49.782;9.932;2022-10-17T12:32:34;100303.47;;;24.89;84.55
10646;BME280;5371;49.782;9.932;2022-10-17T12:35:02;100297.97;;;24.83;85.60
10646;BME280;5371;49.782;9.932;2022-10-17T12:41:01;100302.47;;;24.66;88.16
10646;BME280;5371;49.782;9.932;2022-10-17T12:43:45;100294.44;;;24.58;87.55
10646;BME280;5371;49.782;9.932;2022-10-17T12:52:19;100291.59;;;24.51;89.54
10646;BME280;5371;49.782;9.932;2022-10-17T12:54:51;100292.09;;;24.55;88.00
10646;BME280;5371;49.782;9.932;2022-10-17T12:57:21;100299.44;;;24.61;87.87
10646;BME280;5371;49.782;9.932;2022-10-17T12:59:51;100295.44;;;24.49;87.82
10646;BME280;5371;49.782;9.932;2022-10-17T13:02:20;100300.94;;;24.47;86.55
10646;BME280;5371;49.782;9.932;2022-10-17T13:04:56;100298.75;;;24.43;88.63
10646;BME280;5371;49.782;9.932;2022-10-17T13:07:24;100295.59;;;24.39;87.91
10646;BME280;5371;49.782;9.932;2022-10-17T13:09:51;100293.75;;;24.40;87.58
10646;BME280;5371;49.782;9.932;2022-10-17T13:12:22;100300.09;;;24.47;87.17
10646;BME280;5371;49.782;9.932;2022-10-17T13:14:53;100303.09;;;24.44;85.92
10646;BME280;5371;49.782;9.932;2022-10-17T13:17:23;100305.09;;;24.42;87.95
10646;BME280;5371;49.782;9.932;2022-10-17T13:19:54;100308.44;;;24.44;87.62
10646;BME280;5371;49.782;9.932;2022-10-17T13:22:24;100307.44;;;24.45;89.47
10646;BME280;5371;49.782;9.932;2022-10-17T13:24:52;100313.25;;;24.40;90.86
10646;BME280;5371;49.782;9.932;2022-10-17T13:27:26;100316.59;;;24.34;92.62
10646;BME280;5371;49.782;9.932;2022-10-17T13:29:54;100313.13;;;24.50;94.11
10646;BME280;5371;49.782;9.932;2022-10-17T13:32:22;100316.97;;;24.55;93.28